Bern, ID (83220)

1:25 PM MDT on August 20, 2014 (GMT -0600)
ITD Border Summit ID US | Change Station
CLOSE
Current Station
Personal Weather Station
Location: Cokeville, WY
Elevation: 6354 ft
Nearby Weather Stations

Elev 6354 ft 42.21 °N, 111.11 °W | Updated 30 minutes ago

Overcast
Overcast
69 °F
Feels Like 69 °F
N
10
Wind Variable Wind from WSW
Gusts 15.0 mph

Today
High -- | Low -- °F
--% Chance of Precip.
Yesterday
High -- | Low -- °F
Precip. -- in
6:38 AM 8:18 PM
Waning Crescent, 19% visible
Pressure 30.06 in
Visibility 7.0 miles
Clouds Scattered Clouds 600 ft
Mostly Cloudy 1200 ft
Dew Point 50 °F
Humidity 50%
Rainfall 0.00 in
Snow Depth Not available.
UV 6 out of 12
Pollen 8.30 out of 12
Air Quality Not available.
Flu Activity Not available.
METAR KAFO 201915Z AUTO 15004KT 7SM -RA SCT006 BKN012 13/12 A3006 RMK AO2

More Conditions Fewer Conditions

Pressure 30.06 in
Visibility 7.0 miles
Clouds Scattered Clouds 600 ft
Mostly Cloudy 1200 ft
Dew Point 50 °F
Humidity 50%
Rainfall 0.00 in
Snow Depth Not available.
UV 6 out of 12
Pollen 8.30 out of 12
Air Quality Not available.
Flu Activity Not available.
METAR KAFO 201915Z AUTO 15004KT 7SM -RA SCT006 BKN012 13/12 A3006 RMK AO2

More Conditions Fewer Conditions

10-Day Weather Forecast

Almanac

Astronomy

Aug. 20, 2014 Rise Set
Actual Time 6:38 AM MDT 8:18 PM MDT
Civil Twilight 6:08 AM MDT 8:48 PM MDT
Nautical Twilight 5:32 AM MDT 9:24 PM MDT
Astronomical Twilight 4:53 AM MDT 10:03 PM MDT
Moon 2:18 AM MDT 5:08 PM MDT
Length of Visible Light 14h 40m
Length of Day
13h 40m
Tomorrow will be 2m 37s shorter.
Waning Crescent, 19% of the Moon is Illuminated
Today
Waning Crescent
Aug 25
New
Sep 2
First Quarter
Sep 8
Full
Sep 15
Last Quarter

Today's Extremes

State Highs State Lows

Community

WunderPhotos

Upload Photos

1,745,724 photos uploaded!

WunderBlogs® & News

By Dr. Jeff Masters
Director of Meteorology, Weather Underground
By Kari Strenfel
Meteorologist, Weather Underground
By Christopher C. Burt
Weather Historian, Weather Underground
August 20, 2014
August 20, 2014
August 20, 2014

Nearby

Snow Depth

Station Depth Elevation
Franklin Basin 1 in 8170 ft
Oxford Spring 0 in 6740 ft
Somsen Ranch 0 in 6800 ft
Wildhorse Divide 0 in 6490 ft
White Elephant 0 in 7710 ft

Earthquake Activity

City Distance Mag. Time & Date
No recent earthquake activity has been reported nearby.
Minimum magnitude displayed is 2.5.

Coastal Water Temperatures

Place Temperature
No Stations Reporting

Nearby Weather Stations